createdAt,value
2022-09-24T00:38:40.130Z,9.68
2022-09-24T00:39:42.167Z,27.05
2022-09-24T00:40:47.484Z,16.92
2022-09-24T00:41:49.491Z,62.42
2022-09-24T00:42:54.050Z,21.73
2022-09-24T00:43:56.716Z,10.88
2022-09-24T00:45:04.777Z,9.13
2022-09-24T00:46:13.502Z,9.20
2022-09-24T00:47:26.183Z,9.73
2022-09-24T00:48:28.343Z,9.20
2022-09-24T00:49:32.961Z,9.32
2022-09-24T00:50:35.921Z,8.32
2022-09-24T00:51:42.612Z,7.95
2022-09-24T00:52:48.641Z,9.23
2022-09-24T00:54:02.699Z,10.07
2022-09-24T00:55:05.824Z,8.57
2022-09-24T00:56:15.630Z,8.18
2022-09-24T00:57:17.771Z,8.93
2022-09-24T00:58:23.109Z,7.97
2022-09-24T00:59:26.062Z,8.55
2022-09-24T01:00:31.165Z,7.65
2022-09-24T01:01:33.425Z,8.48
2022-09-24T01:02:39.907Z,8.27
2022-09-24T01:03:42.615Z,7.95
2022-09-24T01:04:49.344Z,7.80
2022-09-24T01:05:53.787Z,8.38
2022-09-24T01:06:59.385Z,8.43
2022-09-24T01:08:01.830Z,7.38
2022-09-24T01:09:08.991Z,7.72
2022-09-24T01:10:11.308Z,7.57
2022-09-24T01:11:41.240Z,7.28
2022-09-24T01:12:53.804Z,8.95
2022-09-24T01:14:12.570Z,9.55
2022-09-24T01:15:27.339Z,8.77
2022-09-24T01:16:38.271Z,8.02
2022-09-24T01:17:51.322Z,8.35
2022-09-24T01:19:05.840Z,9.13
2022-09-24T01:20:29.809Z,9.40
2022-09-24T01:21:39.492Z,8.68
2022-09-24T01:22:57.512Z,9.48
2022-09-24T01:24:25.200Z,9.32
2022-09-24T01:25:40.432Z,8.55
2022-09-24T01:26:57.636Z,8.55
2022-09-24T01:28:16.633Z,8.27
2022-09-24T01:29:42.280Z,6.95
2022-09-24T01:30:48.336Z,8.52
2022-09-24T01:31:57.132Z,7.95
2022-09-24T01:33:05.033Z,8.25
2022-09-24T01:34:09.306Z,8.52
2022-09-24T01:35:18.888Z,7.97
2022-09-24T01:36:23.085Z,7.95
2022-09-24T01:37:31.531Z,8.85
2022-09-24T01:38:38.675Z,8.05
2022-09-24T01:39:47.558Z,8.70
2022-09-24T01:40:51.995Z,7.80
2022-09-24T01:41:57.444Z,8.82
2022-09-24T01:43:02.409Z,8.73
2022-09-24T01:44:09.482Z,8.38
2022-09-24T01:45:14.900Z,8.90
2022-09-24T01:46:22.389Z,9.15
2022-09-24T01:47:34.379Z,9.23
2022-09-24T01:48:40.460Z,8.85
2022-09-24T01:49:42.695Z,10.85
2022-09-24T01:50:54.663Z,10.35
2022-09-24T01:52:01.477Z,8.73
2022-09-24T01:53:12.820Z,9.38
2022-09-24T01:54:21.166Z,10.10
2022-09-24T01:55:31.292Z,9.65
2022-09-24T01:56:38.971Z,11.90
2022-09-24T01:57:48.032Z,12.57
2022-09-24T01:58:53.885Z,12.45
2022-09-24T02:00:02.331Z,11.45
2022-09-24T02:01:10.848Z,11.10
2022-09-24T02:02:21.261Z,11.85
2022-09-24T02:03:29.892Z,12.27
2022-09-24T02:04:38.685Z,12.60
2022-09-24T02:05:51.005Z,12.05
2022-09-24T02:06:57.294Z,11.90
2022-09-24T02:08:08.826Z,10.55
2022-09-24T02:09:29.487Z,11.55
2022-09-24T02:10:38.778Z,10.50
2022-09-24T02:11:40.774Z,12.93
2022-09-24T02:12:48.849Z,13.00
2022-09-24T02:13:57.370Z,12.63
2022-09-24T02:15:05.947Z,12.35
2022-09-24T02:16:16.317Z,13.90
2022-09-24T02:17:21.970Z,12.27
2022-09-24T02:18:28.639Z,12.60
2022-09-24T02:19:37.525Z,12.57
2022-09-24T02:20:42.594Z,12.57
2022-09-24T02:21:49.003Z,12.85
2022-09-24T02:22:54.975Z,12.57
2022-09-24T02:24:04.610Z,12.63
2022-09-24T02:25:10.834Z,12.70
2022-09-24T02:26:16.305Z,13.55
2022-09-24T02:27:19.523Z,13.32
2022-09-24T02:28:24.307Z,13.50
2022-09-24T02:29:26.850Z,13.57
2022-09-24T02:30:32.266Z,13.23
2022-09-24T02:31:40.841Z,13.18
2022-09-24T02:32:47.247Z,13.45
2022-09-24T02:34:06.148Z,13.98
2022-09-24T02:35:11.239Z,13.85
2022-09-24T02:36:13.597Z,14.13
2022-09-24T02:37:20.416Z,14.40
2022-09-24T02:38:23.272Z,12.23
2022-09-24T02:39:28.307Z,12.95
2022-09-24T02:40:30.371Z,11.30
2022-09-24T02:41:35.390Z,11.73
2022-09-24T02:42:37.966Z,11.55
2022-09-24T02:43:42.535Z,12.25
2022-09-24T02:44:44.499Z,11.95
2022-09-24T02:45:49.116Z,12.70
2022-09-24T02:46:53.747Z,12.18
2022-09-24T02:47:58.335Z,12.48
2022-09-24T02:49:00.287Z,13.65
2022-09-24T02:50:04.806Z,13.63
2022-09-24T02:51:06.999Z,11.82
2022-09-24T02:52:12.078Z,13.15
2022-09-24T02:53:14.056Z,13.55
2022-09-24T02:54:18.899Z,11.93
2022-09-24T02:55:21.607Z,12.15
2022-09-24T02:56:26.137Z,11.23
2022-09-24T02:57:28.099Z,11.52
2022-09-24T02:58:33.493Z,9.90
2022-09-24T02:59:36.472Z,10.07
2022-09-24T03:00:41.470Z,10.20
2022-09-24T03:01:46.569Z,10.32
2022-09-24T03:02:54.034Z,10.15
2022-09-24T03:03:56.264Z,10.68
2022-09-24T03:05:00.822Z,11.90
2022-09-24T03:06:02.794Z,11.38
2022-09-24T03:07:07.842Z,11.90
2022-09-24T03:08:09.808Z,10.75
2022-09-24T03:09:15.122Z,11.80
2022-09-24T03:10:17.391Z,11.15
2022-09-24T03:11:22.736Z,11.35
2022-09-24T03:12:27.306Z,11.85
2022-09-24T03:13:29.365Z,11.45
2022-09-24T03:14:33.864Z,10.65
2022-09-24T03:15:35.859Z,10.52
2022-09-24T03:16:40.489Z,11.43
2022-09-24T03:17:42.434Z,11.43
2022-09-24T03:18:50.185Z,11.52
2022-09-24T03:19:52.123Z,11.07
2022-09-24T03:21:00.122Z,11.07
2022-09-24T03:22:02.317Z,11.82
2022-09-24T03:23:07.416Z,11.15
2022-09-24T03:24:09.616Z,10.43
2022-09-24T03:25:14.218Z,9.95
2022-09-24T03:26:18.019Z,11.02
2022-09-24T03:27:22.852Z,10.57
2022-09-24T03:28:24.955Z,10.73
2022-09-24T03:29:41.762Z,10.32
2022-09-24T03:31:02.716Z,10.07
2022-09-24T03:32:04.908Z,9.80
2022-09-24T03:33:06.869Z,9.63
2022-09-24T03:34:13.908Z,9.75
2022-09-24T03:35:16.105Z,9.57
2022-09-24T03:36:22.890Z,8.73
2022-09-24T03:37:24.875Z,9.30
2022-09-24T03:38:30.243Z,9.60
2022-09-24T03:39:32.188Z,8.60
2022-09-24T03:40:36.928Z,9.52
2022-09-24T03:41:41.715Z,8.45
2022-09-24T03:42:43.865Z,9.30
2022-09-24T03:43:48.633Z,9.10
2022-09-24T03:44:51.093Z,9.00
2022-09-24T03:45:56.089Z,9.35
2022-09-24T03:46:58.079Z,8.80
2022-09-24T03:48:02.664Z,9.07
2022-09-24T03:49:04.610Z,8.98
2022-09-24T03:50:12.721Z,8.52
2022-09-24T03:51:18.716Z,9.60
2022-09-24T03:52:23.357Z,9.70
2022-09-24T03:53:25.345Z,9.77
2022-09-24T03:54:30.045Z,9.23
2022-09-24T03:55:32.905Z,9.23
2022-09-24T03:56:37.472Z,9.93
2022-09-24T03:57:39.517Z,10.75
2022-09-24T03:58:48.235Z,10.15
2022-09-24T03:59:54.258Z,9.20
2022-09-24T04:00:59.208Z,10.70
2022-09-24T04:02:01.305Z,8.82
2022-09-24T04:03:05.968Z,9.75
2022-09-24T04:04:08.028Z,9.35
2022-09-24T04:05:15.804Z,9.52
2022-09-24T04:06:23.427Z,9.52
2022-09-24T04:07:29.562Z,9.27
2022-09-24T04:08:32.198Z,8.27
2022-09-24T04:09:36.826Z,9.43
2022-09-24T04:10:38.791Z,9.50
2022-09-24T04:11:43.552Z,10.10
2022-09-24T04:12:46.193Z,9.15
2022-09-24T04:13:50.768Z,9.63
2022-09-24T04:14:52.733Z,10.80
2022-09-24T04:15:57.426Z,10.57
2022-09-24T04:16:59.540Z,9.50
2022-09-24T04:18:04.169Z,10.30
2022-09-24T04:19:08.208Z,9.73
2022-09-24T04:20:15.587Z,10.07
2022-09-24T04:21:17.548Z,9.40
2022-09-24T04:22:22.451Z,10.55
2022-09-24T04:23:27.030Z,10.02
2022-09-24T04:24:28.969Z,10.05
2022-09-24T04:25:35.074Z,10.73
2022-09-24T04:26:37.095Z,10.07
2022-09-24T04:27:41.647Z,9.25
2022-09-24T04:28:43.618Z,9.50
2022-09-24T04:29:48.216Z,8.68
2022-09-24T04:30:50.235Z,8.07
2022-09-24T04:31:54.886Z,8.65
2022-09-24T04:33:00.340Z,8.68
2022-09-24T04:34:04.962Z,8.65
2022-09-24T04:35:08.467Z,8.15
2022-09-24T04:36:15.541Z,8.77
2022-09-24T04:37:17.506Z,7.82
2022-09-24T04:38:22.134Z,8.15
2022-09-24T04:39:26.870Z,9.43
2022-09-24T04:40:31.628Z,8.20
2022-09-24T04:41:35.143Z,8.27
2022-09-24T04:42:40.259Z,7.57
2022-09-24T04:43:43.022Z,7.65
2022-09-24T04:44:51.713Z,7.97
2022-09-24T04:45:57.116Z,8.30
2022-09-24T04:47:03.102Z,8.10
2022-09-24T04:48:05.635Z,7.70
2022-09-24T04:49:11.879Z,8.85
2022-09-24T04:50:14.157Z,9.80
2022-09-24T04:51:22.137Z,9.55
2022-09-24T04:52:26.890Z,9.65
2022-09-24T04:53:31.467Z,10.05
2022-09-24T04:54:33.750Z,10.73
2022-09-24T04:55:38.317Z,10.05
2022-09-24T04:56:40.342Z,10.25
2022-09-24T04:57:45.249Z,9.82
2022-09-24T04:58:50.697Z,10.07
2022-09-24T04:59:57.870Z,9.60
2022-09-24T05:01:04.834Z,9.63
2022-09-24T05:02:09.665Z,10.07
2022-09-24T05:03:14.597Z,9.82
2022-09-24T05:04:17.198Z,9.13
2022-09-24T05:05:21.747Z,10.52
2022-09-24T05:06:26.410Z,9.82
2022-09-24T05:07:34.042Z,10.07
2022-09-24T05:08:36.023Z,11.57
2022-09-24T05:09:40.682Z,9.98
2022-09-24T05:10:43.280Z,9.68
2022-09-24T05:11:47.815Z,10.60
2022-09-24T05:12:49.788Z,9.00
2022-09-24T05:13:54.437Z,9.95
2022-09-24T05:14:56.408Z,10.80
2022-09-24T05:16:01.362Z,9.50
2022-09-24T05:17:03.360Z,9.70
2022-09-24T05:18:09.033Z,9.70
2022-09-24T05:19:11.065Z,9.40
2022-09-24T05:20:16.861Z,9.98
2022-09-24T05:21:18.848Z,10.35
2022-09-24T05:22:27.508Z,9.32
2022-09-24T05:23:29.529Z,8.38
2022-09-24T05:24:34.248Z,8.70
2022-09-24T05:25:56.322Z,9.18
2022-09-24T05:27:10.572Z,9.70
2022-09-24T05:28:15.410Z,9.30
2022-09-24T05:29:17.390Z,9.70
2022-09-24T05:30:23.818Z,9.90
2022-09-24T05:31:25.853Z,8.68
2022-09-24T05:32:30.473Z,8.73
2022-09-24T05:33:32.489Z,8.75
2022-09-24T05:34:37.265Z,9.07
2022-09-24T05:35:39.367Z,8.95
2022-09-24T05:36:44.743Z,8.75
2022-09-24T05:37:53.865Z,10.63
2022-09-24T05:38:56.112Z,9.80
2022-09-24T05:40:20.808Z,10.55
2022-09-24T05:41:22.882Z,11.20
2022-09-24T05:42:27.471Z,11.73
2022-09-24T05:43:29.589Z,10.27
2022-09-24T05:44:34.546Z,9.77
2022-09-24T05:45:36.576Z,9.15
2022-09-24T05:46:41.185Z,8.88
2022-09-24T05:47:43.220Z,8.95
2022-09-24T05:48:47.826Z,9.75
2022-09-24T05:49:49.811Z,9.10
2022-09-24T05:50:55.424Z,6.57
2022-09-24T05:51:57.521Z,8.52
2022-09-24T05:53:04.850Z,8.88
2022-09-24T05:54:07.165Z,8.43
2022-09-24T05:55:15.919Z,9.38
2022-09-24T05:56:20.979Z,9.10
2022-09-24T05:57:22.978Z,8.05
2022-09-24T05:58:27.853Z,8.68
2022-09-24T05:59:29.903Z,8.25
2022-09-24T06:00:35.684Z,9.50
2022-09-24T06:01:37.935Z,9.80
2022-09-24T06:02:42.680Z,9.38
2022-09-24T06:03:44.742Z,10.05
2022-09-24T06:04:49.322Z,10.43
2022-09-24T06:05:52.069Z,9.90
2022-09-24T06:06:56.937Z,11.02
2022-09-24T06:08:02.259Z,11.13
2022-09-24T06:09:09.017Z,10.07
2022-09-24T06:10:11.457Z,10.40
2022-09-24T06:11:16.025Z,10.75
2022-09-24T06:12:22.302Z,9.15
2022-09-24T06:13:27.052Z,9.88
2022-09-24T06:14:29.285Z,10.52
2022-09-24T06:15:35.125Z,10.65
2022-09-24T06:16:39.842Z,10.85
2022-09-24T06:17:41.895Z,9.73
2022-09-24T06:18:47.412Z,10.65
2022-09-24T06:19:49.441Z,11.43
2022-09-24T06:20:54.920Z,11.50
2022-09-24T06:22:00.189Z,11.07
2022-09-24T06:23:06.630Z,11.88
2022-09-24T06:24:11.665Z,11.98
2022-09-24T06:25:14.021Z,12.15
2022-09-24T06:26:18.970Z,12.63
2022-09-24T06:27:21.068Z,11.27
2022-09-24T06:28:25.743Z,12.57
2022-09-24T06:29:27.854Z,12.23
2022-09-24T06:30:35.693Z,13.45
2022-09-24T06:31:37.871Z,11.48
2022-09-24T06:32:42.545Z,12.13
2022-09-24T06:33:44.676Z,12.55
2022-09-24T06:34:49.497Z,13.02
2022-09-24T06:35:51.649Z,11.88
2022-09-24T06:36:57.240Z,13.45
2022-09-24T06:37:59.299Z,13.07
2022-09-24T06:39:08.058Z,12.48
2022-09-24T06:40:10.793Z,12.90
2022-09-24T06:41:15.676Z,11.57
2022-09-24T06:42:17.646Z,12.25
2022-09-24T06:43:22.388Z,11.77
2022-09-24T06:44:24.363Z,11.10
2022-09-24T06:45:29.414Z,12.63
2022-09-24T06:46:34.057Z,12.27
2022-09-24T06:47:36.264Z,11.82
2022-09-24T06:48:41.368Z,12.98
2022-09-24T06:49:43.308Z,12.40
2022-09-24T06:50:48.231Z,15.13
2022-09-24T06:51:51.073Z,13.35
2022-09-24T06:52:55.906Z,13.52
2022-09-24T06:54:00.454Z,12.50
2022-09-24T06:55:05.964Z,12.10
2022-09-24T06:56:10.519Z,12.30
2022-09-24T06:57:12.788Z,12.20
2022-09-24T06:58:20.169Z,12.23
2022-09-24T06:59:24.872Z,12.00
2022-09-24T07:00:26.958Z,11.85
2022-09-24T07:01:31.610Z,11.88
2022-09-24T07:02:36.615Z,12.20
2022-09-24T07:03:41.792Z,11.95
2022-09-24T07:04:43.858Z,12.45
2022-09-24T07:05:48.423Z,12.10
2022-09-24T07:07:05.413Z,12.45
2022-09-24T07:08:10.035Z,11.90
2022-09-24T07:09:12.771Z,10.77
2022-09-24T07:10:20.152Z,11.30
2022-09-24T07:11:24.954Z,12.02
2022-09-24T07:12:26.924Z,12.73
2022-09-24T07:13:31.559Z,11.55
2022-09-24T07:14:33.570Z,11.30
2022-09-24T07:15:38.271Z,12.32
2022-09-24T07:16:40.352Z,12.57
2022-09-24T07:17:44.880Z,10.75
2022-09-24T07:18:46.875Z,11.90
2022-09-24T07:19:51.543Z,11.60
2022-09-24T07:20:56.720Z,12.50
2022-09-24T07:21:58.956Z,11.48
2022-09-24T07:23:03.769Z,44.20
2022-09-24T07:24:06.332Z,29.13
2022-09-24T07:25:13.518Z,18.13
2022-09-24T07:26:20.699Z,12.25
2022-09-24T07:27:22.696Z,11.95
2022-09-24T07:28:27.332Z,12.93
2022-09-24T07:29:29.277Z,11.98
2022-09-24T07:30:34.475Z,11.48
2022-09-24T07:31:36.880Z,11.40
2022-09-24T07:32:41.866Z,11.27
2022-09-24T07:33:43.914Z,12.15
2022-09-24T07:34:48.805Z,12.00
2022-09-24T07:35:51.226Z,12.32
2022-09-24T07:36:57.262Z,12.38
2022-09-24T07:38:01.073Z,11.07
2022-09-24T07:39:05.923Z,11.93
2022-09-24T07:40:09.361Z,11.02
2022-09-24T07:41:13.951Z,11.07
2022-09-24T07:42:18.819Z,11.80
2022-09-24T07:43:24.248Z,10.55
2022-09-24T07:44:26.269Z,10.88
2022-09-24T07:45:32.469Z,11.00
2022-09-24T07:46:34.688Z,9.80
2022-09-24T07:47:39.804Z,9.88
2022-09-24T07:48:41.853Z,9.95
2022-09-24T07:49:46.625Z,9.43
2022-09-24T07:50:48.610Z,10.27
2022-09-24T07:51:54.171Z,10.07
2022-09-24T07:52:59.440Z,10.25
2022-09-24T07:54:04.642Z,9.43
2022-09-24T07:55:10.921Z,9.63
2022-09-24T07:56:12.941Z,9.75
2022-09-24T07:57:17.533Z,9.40
2022-09-24T07:58:22.129Z,9.23
2022-09-24T07:59:26.783Z,9.90
2022-09-24T08:00:28.774Z,8.82
2022-09-24T08:01:34.444Z,9.20
2022-09-24T08:02:36.717Z,8.57
2022-09-24T08:03:41.404Z,8.75
2022-09-24T08:04:43.714Z,8.57
2022-09-24T08:05:48.623Z,9.50
2022-09-24T08:06:50.592Z,9.63
2022-09-24T08:07:56.189Z,9.18
2022-09-24T08:08:58.183Z,8.75
2022-09-24T08:10:02.977Z,9.63
2022-09-24T08:11:07.794Z,8.82
2022-09-24T08:12:10.140Z,8.52
2022-09-24T08:13:14.922Z,8.18
2022-09-24T08:14:19.906Z,8.93
2022-09-24T08:15:24.991Z,8.38
2022-09-24T08:16:29.861Z,9.52
2022-09-24T08:17:32.015Z,9.05
2022-09-24T08:18:37.107Z,7.63
2022-09-24T08:19:43.326Z,7.97
2022-09-24T08:20:47.903Z,8.57
2022-09-24T08:21:50.371Z,8.45
2022-09-24T08:22:54.923Z,8.48
2022-09-24T08:23:56.912Z,10.07
2022-09-24T08:25:03.196Z,9.07
2022-09-24T08:26:06.119Z,9.32
2022-09-24T08:27:15.012Z,9.35
2022-09-24T08:28:19.970Z,9.25
2022-09-24T08:29:27.093Z,8.90
2022-09-24T08:30:29.707Z,9.35
2022-09-24T08:31:34.911Z,9.30
2022-09-24T08:32:36.950Z,9.77
2022-09-24T08:33:43.941Z,8.90
2022-09-24T08:34:45.902Z,10.25
2022-09-24T08:35:50.706Z,8.20
2022-09-24T08:36:55.410Z,8.57
2022-09-24T08:38:01.364Z,8.57
2022-09-24T08:39:07.023Z,8.23
2022-09-24T08:40:17.155Z,8.60
2022-09-24T08:41:35.983Z,10.35
2022-09-24T08:42:49.421Z,7.50
2022-09-24T08:44:00.529Z,8.32
2022-09-24T08:45:21.421Z,8.10
2022-09-24T08:46:43.786Z,7.78
2022-09-24T08:47:49.280Z,8.68
2022-09-24T08:48:56.327Z,8.15
2022-09-24T08:50:10.235Z,8.48
2022-09-24T08:51:20.250Z,8.88
2022-09-24T08:52:31.461Z,7.90
2022-09-24T08:53:48.790Z,7.97
2022-09-24T08:54:53.217Z,8.65
2022-09-24T08:56:01.499Z,8.48
2022-09-24T08:57:11.931Z,8.20
2022-09-24T08:58:31.607Z,8.43
2022-09-24T08:59:36.546Z,7.13
2022-09-24T09:00:52.885Z,6.53
2022-09-24T09:02:03.105Z,8.18
2022-09-24T09:03:15.223Z,7.72
2022-09-24T09:04:26.515Z,8.45
2022-09-24T09:05:50.410Z,7.80
2022-09-24T09:07:14.413Z,6.75
2022-09-24T09:08:50.534Z,7.47
2022-09-24T09:09:56.593Z,7.93
2022-09-24T09:11:02.366Z,6.10
2022-09-24T09:12:14.646Z,7.97
2022-09-24T09:13:24.111Z,6.60
2022-09-24T09:14:42.433Z,7.60
2022-09-24T09:15:55.000Z,7.60
2022-09-24T09:17:05.070Z,7.50
2022-09-24T09:18:15.604Z,54.45
2022-09-24T09:19:23.353Z,117.00
2022-09-24T09:20:31.948Z,72.07
2022-09-24T09:21:42.679Z,7.72
2022-09-24T09:22:48.349Z,6.82
2022-09-24T09:23:54.711Z,6.05
2022-09-24T09:25:04.412Z,5.85
2022-09-24T09:26:14.231Z,6.57
2022-09-24T09:27:18.458Z,7.85
2022-09-24T09:28:23.526Z,6.28
2022-09-24T09:29:28.300Z,6.22
2022-09-24T09:30:43.630Z,6.88
2022-09-24T09:31:58.776Z,7.10
2022-09-24T09:33:18.847Z,7.25
2022-09-24T09:34:36.701Z,6.63
2022-09-24T09:35:49.254Z,6.43
2022-09-24T09:37:05.077Z,8.07
2022-09-24T09:38:19.655Z,6.28
2022-09-24T09:39:39.002Z,6.57
2022-09-24T09:40:48.548Z,5.45
2022-09-24T09:41:56.735Z,5.80
2022-09-24T09:43:05.745Z,7.05
2022-09-24T09:44:14.268Z,6.63
2022-09-24T09:45:29.742Z,7.28
2022-09-24T09:46:38.079Z,7.03
2022-09-24T09:47:50.943Z,6.97
2022-09-24T09:49:00.095Z,6.85
2022-09-24T09:50:08.707Z,5.80
2022-09-24T09:51:22.342Z,6.30
2022-09-24T09:52:28.829Z,5.95
2022-09-24T09:53:34.210Z,7.22
2022-09-24T09:54:37.187Z,6.63
2022-09-24T09:55:41.744Z,6.40
2022-09-24T09:56:47.475Z,5.60
2022-09-24T09:57:53.248Z,6.40
2022-09-24T09:59:07.438Z,6.78
2022-09-24T10:00:25.784Z,6.80
2022-09-24T10:01:35.035Z,6.10
2022-09-24T10:02:46.199Z,6.10
2022-09-24T10:03:50.990Z,5.25
2022-09-24T10:04:58.983Z,6.43
2022-09-24T10:06:03.609Z,5.20
2022-09-24T10:07:10.751Z,7.07
2022-09-24T10:08:24.371Z,5.50
2022-09-24T10:09:26.435Z,6.15
2022-09-24T10:10:31.917Z,5.25
2022-09-24T10:11:34.141Z,5.65
2022-09-24T10:12:38.876Z,5.32
2022-09-24T10:13:40.876Z,6.60
2022-09-24T10:14:45.943Z,6.90
2022-09-24T10:15:56.133Z,5.60
2022-09-24T10:17:05.354Z,5.78
2022-09-24T10:18:17.182Z,6.45
2022-09-24T10:19:23.697Z,6.22
2022-09-24T10:20:32.769Z,5.35
2022-09-24T10:21:37.240Z,5.15
2022-09-24T10:22:42.696Z,4.80
2022-09-24T10:23:48.645Z,4.85
2022-09-24T10:24:54.364Z,5.68
2022-09-24T10:26:02.572Z,4.55
2022-09-24T10:27:12.180Z,4.75
2022-09-24T10:28:35.110Z,4.45
2022-09-24T10:29:52.168Z,5.30
2022-09-24T10:31:01.762Z,5.97
2022-09-24T10:32:05.448Z,5.15
2022-09-24T10:33:10.434Z,80.55
2022-09-24T10:34:24.786Z,5.07
2022-09-24T10:35:31.681Z,95.75
2022-09-24T10:36:33.734Z,52.20
2022-09-24T10:37:38.605Z,4.93
2022-09-24T10:38:40.665Z,243.07
2022-09-24T10:39:45.429Z,413.52
2022-09-24T10:40:48.193Z,622.97
2022-09-24T10:41:54.805Z,129.93
2022-09-24T10:42:59.061Z,30.02
2022-09-24T10:44:06.450Z,5.10
2022-09-24T10:45:14.097Z,4.18
2022-09-24T10:46:40.749Z,4.20
2022-09-24T10:47:51.097Z,128.07
2022-09-24T10:49:06.988Z,250.18
2022-09-24T10:50:40.588Z,76.18
2022-09-24T10:51:54.491Z,35.38
2022-09-24T10:53:06.583Z,64.70
2022-09-24T10:54:28.015Z,94.78
2022-09-24T10:55:55.502Z,115.97
2022-09-24T10:57:00.127Z,49.55
2022-09-24T10:58:10.276Z,72.20
2022-09-24T10:59:29.716Z,129.93
2022-09-24T11:00:41.819Z,176.13
2022-09-24T11:01:52.454Z,54.55
2022-09-24T11:03:32.325Z,65.28
2022-09-24T11:04:47.880Z,49.97
2022-09-24T11:05:59.261Z,38.13
2022-09-24T11:07:31.547Z,24.88
2022-09-24T11:09:56.174Z,11.70
2022-09-24T11:11:24.527Z,4.03
2022-09-24T11:12:31.942Z,4.32
2022-09-24T11:13:46.865Z,5.68
2022-09-24T11:15:12.019Z,4.97
2022-09-24T11:16:41.857Z,4.28
2022-09-24T11:17:55.183Z,3.85
2022-09-24T11:19:04.519Z,4.65
